createdAt,value
2022-09-01T00:00:02.040Z,101948.13
2022-09-01T00:02:30.259Z,101943.63
2022-09-01T00:04:58.479Z,101943.97
2022-09-01T00:07:22.287Z,101951.97
2022-09-01T00:09:45.963Z,101944.53
2022-09-01T00:12:11.287Z,101946.34
2022-09-01T00:14:41.576Z,101953.09
2022-09-01T00:17:09.004Z,101954.59
2022-09-01T00:19:36.504Z,101949.22
2022-09-01T00:22:01.219Z,101952.59
2022-09-01T00:24:26.218Z,101949.44
2022-09-01T00:26:50.690Z,101949.75
2022-09-01T00:29:14.624Z,101953.41
2022-09-01T00:31:38.845Z,101947.03
2022-09-01T00:34:03.614Z,101949.50
2022-09-01T00:36:29.258Z,101937.44
2022-09-01T00:38:53.591Z,101938.78
2022-09-01T00:41:19.276Z,101941.19
2022-09-01T00:43:45.578Z,101938.38
2022-09-01T00:46:14.143Z,101944.63
2022-09-01T00:48:42.363Z,101937.94
2022-09-01T00:51:09.095Z,101930.00
2022-09-01T00:53:35.099Z,101937.69
2022-09-01T00:55:59.211Z,101939.69
2022-09-01T00:58:23.465Z,101940.97
2022-09-01T01:00:51.084Z,101945.81
2022-09-01T01:03:16.052Z,101936.69
2022-09-01T01:05:46.044Z,101940.59
2022-09-01T01:08:12.140Z,101939.84
2022-09-01T01:10:41.528Z,101940.47
2022-09-01T01:13:10.488Z,101934.22
2022-09-01T01:15:34.149Z,101930.44
2022-09-01T01:17:58.060Z,101939.56
2022-09-01T01:20:43.892Z,101934.03
2022-09-01T01:23:16.888Z,101936.75
2022-09-01T01:25:45.368Z,101940.97
2022-09-01T01:28:15.815Z,101934.41
2022-09-01T01:30:43.065Z,101937.59
2022-09-01T01:33:08.114Z,101943.22
2022-09-01T01:35:33.800Z,101935.53
2022-09-01T01:37:57.538Z,101938.97
2022-09-01T01:40:22.878Z,101940.97
2022-09-01T01:42:51.297Z,101941.03
2022-09-01T01:45:17.227Z,101933.13
2022-09-01T01:47:41.736Z,101945.19
2022-09-01T01:50:09.487Z,101935.94
2022-09-01T01:52:34.900Z,101938.84
2022-09-01T01:55:05.102Z,101930.16
2022-09-01T01:57:32.019Z,101937.50
2022-09-01T01:59:57.248Z,101932.84
2022-09-01T02:02:20.990Z,101926.97
2022-09-01T02:04:45.664Z,101932.75
2022-09-01T02:07:13.107Z,101931.13
2022-09-01T02:09:39.789Z,101939.16
2022-09-01T02:12:04.220Z,101933.59
2022-09-01T02:14:29.407Z,101926.47
2022-09-01T02:16:56.132Z,101936.81
2022-09-01T02:19:21.205Z,101927.97
2022-09-01T02:21:47.276Z,101933.03
2022-09-01T02:24:12.060Z,101937.56
2022-09-01T02:26:39.632Z,101935.00
2022-09-01T02:29:07.243Z,101938.22
2022-09-01T02:31:39.310Z,101936.72
2022-09-01T02:34:04.996Z,101934.19
2022-09-01T02:36:32.777Z,101936.63
2022-09-01T02:38:57.077Z,101934.06
2022-09-01T02:41:23.715Z,101935.06
2022-09-01T02:43:47.852Z,101933.56
2022-09-01T02:46:12.284Z,101932.09
2022-09-01T02:48:39.361Z,101930.75
2022-09-01T02:51:08.489Z,101928.25
2022-09-01T02:53:34.970Z,101926.53
2022-09-01T02:56:00.108Z,101923.34
2022-09-01T02:58:24.979Z,101925.03
2022-09-01T03:00:55.371Z,101927.97
2022-09-01T03:03:21.730Z,101921.84
2022-09-01T03:05:45.429Z,101921.94
2022-09-01T03:08:16.149Z,101919.00
2022-09-01T03:10:43.034Z,101925.59
2022-09-01T03:13:09.444Z,101916.53
2022-09-01T03:15:34.148Z,101915.91
2022-09-01T03:18:00.867Z,101918.34
2022-09-01T03:20:24.696Z,101912.69
2022-09-01T03:22:49.021Z,101917.09
2022-09-01T03:25:14.463Z,101917.22
2022-09-01T03:27:38.067Z,101916.94
2022-09-01T03:30:01.822Z,101914.59
2022-09-01T03:32:26.116Z,101917.50
2022-09-01T03:34:51.321Z,101917.00
2022-09-01T03:37:15.077Z,101914.03
2022-09-01T03:39:39.598Z,101912.56
2022-09-01T03:42:05.137Z,101919.00
2022-09-01T03:44:29.634Z,101916.91
2022-09-01T03:46:53.455Z,101922.78
2022-09-01T03:49:25.149Z,101920.41
2022-09-01T03:51:49.121Z,101925.69
2022-09-01T03:54:14.406Z,101927.13
2022-09-01T03:56:41.715Z,101922.31
2022-09-01T03:59:17.144Z,101920.69
2022-09-01T04:01:43.819Z,101921.88
2022-09-01T04:04:07.890Z,101922.09
2022-09-01T04:06:32.333Z,101924.16
2022-09-01T04:09:03.278Z,101919.78
2022-09-01T04:11:32.353Z,101920.84
2022-09-01T04:13:56.171Z,101911.78
2022-09-01T04:16:42.273Z,101914.59
2022-09-01T04:19:16.189Z,101907.72
2022-09-01T04:21:40.055Z,101914.53
2022-09-01T04:24:05.730Z,101909.44
2022-09-01T04:26:31.370Z,101910.19
2022-09-01T04:28:56.157Z,101912.69
2022-09-01T04:31:23.223Z,101919.22
2022-09-01T04:33:52.824Z,101916.53
2022-09-01T04:36:22.482Z,101914.91
2022-09-01T04:38:47.111Z,101912.22
2022-09-01T04:41:16.619Z,101915.69
2022-09-01T04:43:40.552Z,101922.81
2022-09-01T04:46:04.539Z,101921.09
2022-09-01T04:48:31.639Z,101919.47
2022-09-01T04:50:56.500Z,101917.91
2022-09-01T04:53:25.108Z,101920.50
2022-09-01T04:55:55.227Z,101918.81
2022-09-01T04:58:22.140Z,101924.97
2022-09-01T05:00:49.627Z,101922.22
2022-09-01T05:03:15.107Z,101918.13
2022-09-01T05:05:54.145Z,101930.97
2022-09-01T05:08:24.309Z,101916.84
2022-09-01T05:10:53.320Z,101920.69
2022-09-01T05:13:29.681Z,101923.78
2022-09-01T05:16:04.388Z,101918.97
2022-09-01T05:18:28.332Z,101923.44
2022-09-01T05:20:54.239Z,101916.53
2022-09-01T05:23:19.706Z,101915.69
2022-09-01T05:25:46.228Z,101921.72
2022-09-01T05:28:11.992Z,101917.13
2022-09-01T05:30:36.922Z,101920.88
2022-09-01T05:33:00.747Z,101923.97
2022-09-01T05:35:32.771Z,101916.22
2022-09-01T05:37:59.983Z,101919.66
2022-09-01T05:40:24.747Z,101921.50
2022-09-01T05:42:48.919Z,101917.69
2022-09-01T05:45:14.363Z,101920.25
2022-09-01T05:47:38.153Z,101927.25
2022-09-01T05:50:02.175Z,101928.03
2022-09-01T05:52:26.492Z,101925.19
2022-09-01T05:54:52.513Z,101932.34
2022-09-01T05:57:33.759Z,101926.69
2022-09-01T05:59:58.543Z,101925.25
2022-09-01T06:02:24.364Z,101927.72
2022-09-01T06:04:49.027Z,101928.63
2022-09-01T06:07:25.405Z,101932.09
2022-09-01T06:09:53.814Z,101927.34
2022-09-01T06:12:23.828Z,101930.53
2022-09-01T06:14:49.887Z,101930.19
2022-09-01T06:17:16.490Z,101927.69
2022-09-01T06:19:41.144Z,101927.44
2022-09-01T06:22:05.318Z,101923.75
2022-09-01T06:24:29.876Z,101925.03
2022-09-01T06:26:55.051Z,101920.78
2022-09-01T06:29:20.511Z,101922.97
2022-09-01T06:31:51.846Z,101927.16
2022-09-01T06:34:18.162Z,101927.69
2022-09-01T06:36:43.058Z,101927.66
2022-09-01T06:39:07.659Z,101931.03
2022-09-01T06:41:32.194Z,101931.78
2022-09-01T06:43:57.775Z,101936.38
2022-09-01T06:46:22.456Z,101942.63
2022-09-01T06:48:47.499Z,101944.56
2022-09-01T06:51:15.843Z,101930.16
2022-09-01T06:53:42.467Z,101932.72
2022-09-01T06:56:10.216Z,101937.59
2022-09-01T06:58:35.050Z,101933.28
2022-09-01T07:01:00.369Z,101937.81
2022-09-01T07:03:25.147Z,101942.31
2022-09-01T07:06:02.445Z,101940.91
2022-09-01T07:12:24.228Z,101941.94
2022-09-01T07:17:34.716Z,101946.81
2022-09-01T07:20:23.164Z,101945.44
2022-09-01T07:25:48.402Z,101949.88
2022-09-01T07:28:20.594Z,101940.63
2022-09-01T07:30:53.045Z,101947.63
2022-09-01T07:44:50.416Z,101941.75
2022-09-01T07:47:56.316Z,101944.44
2022-09-01T07:50:38.685Z,101941.09
2022-09-01T07:53:05.816Z,101949.16
2022-09-01T07:55:29.707Z,101953.88
2022-09-01T07:57:53.496Z,101944.00
2022-09-01T08:00:17.756Z,101947.81
2022-09-01T08:02:47.057Z,101949.88
2022-09-01T08:05:18.035Z,101949.69
2022-09-01T08:07:58.687Z,101956.84
2022-09-01T08:10:28.248Z,101960.34
2022-09-01T08:12:59.785Z,101951.41
2022-09-01T08:15:41.012Z,101956.84
2022-09-01T08:18:08.870Z,101953.06
2022-09-01T08:20:35.207Z,101958.88
2022-09-01T08:23:23.556Z,101950.88
2022-09-01T08:25:50.660Z,101955.44
2022-09-01T08:28:26.021Z,101954.34
2022-09-01T08:30:52.810Z,101955.16
2022-09-01T08:33:19.954Z,101949.84
2022-09-01T08:35:48.646Z,101944.06
2022-09-01T08:38:13.749Z,101954.28
2022-09-01T08:40:42.293Z,101950.44
2022-09-01T08:43:17.709Z,101949.91
2022-09-01T08:45:49.240Z,101946.72
2022-09-01T08:51:17.146Z,101953.97
2022-09-01T08:54:29.409Z,101959.88
2022-09-01T08:57:01.167Z,101956.41
2022-09-01T08:59:44.926Z,101950.31
2022-09-01T09:02:45.312Z,101947.19
2022-09-01T09:05:25.121Z,101939.00
2022-09-01T09:08:17.956Z,101938.31
2022-09-01T09:10:52.272Z,101934.34
2022-09-01T09:13:23.531Z,101930.97
2022-09-01T09:16:07.481Z,101934.09
2022-09-01T09:18:54.661Z,101936.88
2022-09-01T09:21:23.641Z,101925.03
2022-09-01T09:23:56.247Z,101931.31
2022-09-01T09:26:22.248Z,101926.56
2022-09-01T09:28:49.959Z,101925.63
2022-09-01T09:31:33.898Z,101930.97
2022-09-01T09:34:00.387Z,101926.38
2022-09-01T09:36:31.507Z,101919.59
2022-09-01T09:39:09.413Z,101931.56
2022-09-01T09:41:33.252Z,101915.97
2022-09-01T09:44:01.299Z,101925.81
2022-09-01T09:46:29.548Z,101923.03
2022-09-01T09:49:15.078Z,101927.53
2022-09-01T09:51:40.651Z,101920.97
2022-09-01T09:54:16.430Z,101918.00
2022-09-01T09:56:44.477Z,101913.41
2022-09-01T09:59:45.800Z,101919.88
2022-09-01T10:02:28.942Z,101917.97
2022-09-01T10:04:55.806Z,101923.97
2022-09-01T10:07:35.077Z,101912.78
2022-09-01T10:10:01.874Z,101909.69
2022-09-01T10:12:27.225Z,101913.53
2022-09-01T10:14:55.777Z,101911.56
2022-09-01T10:17:26.218Z,101912.59
2022-09-01T10:19:57.074Z,101911.63
2022-09-01T10:22:21.827Z,101919.91
2022-09-01T10:24:46.236Z,101914.78
2022-09-01T10:27:20.747Z,101905.75
2022-09-01T10:29:50.336Z,101910.56
2022-09-01T10:32:35.193Z,101913.81
2022-09-01T10:35:04.722Z,101908.09
2022-09-01T10:37:38.986Z,101902.41
2022-09-01T10:40:43.420Z,101908.69
2022-09-01T10:43:38.061Z,101901.00
2022-09-01T10:46:05.827Z,101900.34
2022-09-01T10:48:48.415Z,101903.16
2022-09-01T10:51:51.394Z,101900.13
2022-09-01T10:54:55.786Z,101899.81
2022-09-01T10:57:42.295Z,101902.38
2022-09-01T11:03:53.449Z,101896.06
2022-09-01T11:07:14.490Z,101904.78
2022-09-01T11:09:41.847Z,101901.41
2022-09-01T11:12:49.123Z,101898.84
2022-09-01T11:15:36.667Z,101897.75
2022-09-01T11:18:01.208Z,101895.16
2022-09-01T11:20:29.297Z,101889.03
2022-09-01T11:23:03.723Z,101881.88
2022-09-01T11:25:43.746Z,101878.19
2022-09-01T11:28:38.111Z,101886.38
2022-09-01T11:31:12.953Z,101885.47
2022-09-01T11:33:47.966Z,101888.91
2022-09-01T11:36:25.559Z,101892.47
2022-09-01T11:38:55.023Z,101901.56
2022-09-01T11:41:29.048Z,101903.50
2022-09-01T11:43:59.061Z,101905.16
2022-09-01T11:46:29.404Z,101904.75
2022-09-01T11:48:53.265Z,101912.19
2022-09-01T11:51:18.823Z,101902.38
2022-09-01T11:53:43.948Z,101897.97
2022-09-01T11:56:17.498Z,101906.88
2022-09-01T11:58:41.910Z,101900.91
2022-09-01T12:01:16.918Z,101898.00
2022-09-01T12:03:41.116Z,101900.84
2022-09-01T12:06:08.527Z,101896.03
2022-09-01T12:08:36.863Z,101895.84
2022-09-01T12:11:08.687Z,101896.34
2022-09-01T12:13:32.527Z,101899.53
2022-09-01T12:16:18.484Z,101901.59
2022-09-01T12:18:49.890Z,101892.06
2022-09-01T12:21:24.043Z,101887.78
2022-09-01T12:23:49.438Z,101889.28
2022-09-01T12:26:16.935Z,101886.91
2022-09-01T12:28:42.276Z,101875.31
2022-09-01T12:31:09.890Z,101871.88
2022-09-01T12:33:34.193Z,101876.78
2022-09-01T12:36:16.676Z,101872.50
2022-09-01T12:38:40.374Z,101871.41
2022-09-01T12:41:34.958Z,101866.47
2022-09-01T12:43:58.739Z,101862.31
2022-09-01T12:46:42.371Z,101862.66
2022-09-01T12:49:19.905Z,101868.31
2022-09-01T12:51:43.927Z,101869.31
2022-09-01T12:54:09.433Z,101864.56
2022-09-01T12:56:38.995Z,101862.47
2022-09-01T12:59:15.577Z,101859.75
2022-09-01T13:01:42.778Z,101858.81
2022-09-01T13:04:29.998Z,101861.25
2022-09-01T13:06:54.196Z,101858.47
2022-09-01T13:09:18.182Z,101859.31
2022-09-01T13:14:31.332Z,101849.16
2022-09-01T13:16:54.967Z,101853.19
2022-09-01T13:19:27.375Z,101847.16
2022-09-01T13:21:51.636Z,101843.16
2022-09-01T13:24:15.224Z,101853.66
2022-09-01T13:26:38.987Z,101846.97
2022-09-01T13:29:04.523Z,101847.22
2022-09-01T13:31:30.079Z,101857.22
2022-09-01T13:34:10.892Z,101849.19
2022-09-01T13:36:49.696Z,101846.78
2022-09-01T13:39:15.651Z,101839.63
2022-09-01T13:41:40.533Z,101848.97
2022-09-01T13:44:05.735Z,101842.47
2022-09-01T13:46:29.368Z,101840.78
2022-09-01T13:51:37.315Z,101835.63
2022-09-01T13:54:00.948Z,101834.59
2022-09-01T13:56:24.877Z,101838.56
2022-09-01T13:58:48.761Z,101832.63
2022-09-01T14:01:13.911Z,101826.69
2022-09-01T14:03:37.787Z,101828.25
2022-09-01T14:06:01.835Z,101829.44
2022-09-01T14:08:25.548Z,101820.28
2022-09-01T14:10:51.953Z,101822.78
2022-09-01T14:13:15.903Z,101832.97
2022-09-01T14:15:40.585Z,101832.22
2022-09-01T14:18:06.455Z,101824.03
2022-09-01T14:20:36.861Z,101815.94
2022-09-01T14:23:00.980Z,101815.38
2022-09-01T14:25:24.854Z,101823.31
2022-09-01T14:27:49.717Z,101814.28
2022-09-01T14:30:17.011Z,101816.88
2022-09-01T14:32:40.719Z,101814.50
2022-09-01T14:35:08.249Z,101804.31
2022-09-01T14:37:31.986Z,101811.53
2022-09-01T14:39:58.179Z,101802.88
2022-09-01T14:42:24.047Z,101802.31
2022-09-01T14:44:48.347Z,101807.59
2022-09-01T14:47:12.483Z,101796.81
2022-09-01T14:49:43.043Z,101794.63
2022-09-01T14:52:10.563Z,101797.25
2022-09-01T14:54:35.199Z,101792.81
2022-09-01T14:59:42.803Z,101797.06
2022-09-01T15:02:07.211Z,101794.69
2022-09-01T15:04:31.414Z,101789.59
2022-09-01T15:06:55.151Z,101783.91
2022-09-01T15:09:20.329Z,101794.53
2022-09-01T15:11:45.125Z,101779.63
2022-09-01T15:14:10.480Z,101781.22
2022-09-01T15:16:39.535Z,101789.03
2022-09-01T15:19:04.023Z,101779.03
2022-09-01T15:21:32.043Z,101777.88
2022-09-01T15:23:56.528Z,101785.19
2022-09-01T15:26:22.920Z,101780.59
2022-09-01T15:28:48.193Z,101786.13
2022-09-01T15:31:12.882Z,101784.16
2022-09-01T15:33:36.715Z,101782.00
2022-09-01T15:36:02.063Z,101780.09
2022-09-01T15:38:30.316Z,101781.63
2022-09-01T15:40:58.328Z,101784.50
2022-09-01T15:43:24.783Z,101785.44
2022-09-01T15:45:48.698Z,101784.47
2022-09-01T15:48:12.387Z,101772.84
2022-09-01T15:50:36.044Z,101774.31
2022-09-01T15:53:02.900Z,101771.66
2022-09-01T15:55:28.928Z,101769.41
2022-09-01T15:57:54.259Z,101774.72
2022-09-01T16:00:20.268Z,101771.66
2022-09-01T16:02:44.304Z,101763.63
2022-09-01T16:05:09.787Z,101774.19
2022-09-01T16:07:33.597Z,101768.38
2022-09-01T16:09:57.931Z,101762.22
2022-09-01T16:12:21.651Z,101771.75
2022-09-01T16:14:45.646Z,101760.75
2022-09-01T16:17:19.142Z,101776.81
2022-09-01T16:19:54.411Z,101767.44
2022-09-01T16:22:26.890Z,101771.00
2022-09-01T16:24:54.233Z,101775.13
2022-09-01T16:27:21.391Z,101778.88
2022-09-01T16:29:49.723Z,101770.69
2022-09-01T16:32:15.492Z,101775.78
2022-09-01T16:34:47.065Z,101777.19
2022-09-01T16:37:28.867Z,101781.28
2022-09-01T16:39:58.864Z,101768.22
2022-09-01T16:42:31.148Z,101776.47
2022-09-01T16:45:06.997Z,101773.34
2022-09-01T16:47:59.113Z,101773.66
2022-09-01T16:50:38.058Z,101773.53
2022-09-01T16:53:16.835Z,101777.78
2022-09-01T16:55:57.253Z,101763.50
2022-09-01T16:58:29.176Z,101764.44
2022-09-01T17:01:05.892Z,101760.50
2022-09-01T17:03:42.731Z,101768.50
2022-09-01T17:06:15.472Z,101774.03
2022-09-01T17:08:52.687Z,101768.59
2022-09-01T17:11:27.927Z,101769.16
2022-09-01T17:13:53.487Z,101766.09
2022-09-01T17:16:24.109Z,101764.28
2022-09-01T17:18:55.950Z,101771.91
2022-09-01T17:21:25.737Z,101776.47
2022-09-01T17:23:56.041Z,101775.69
2022-09-01T17:26:26.536Z,101780.19
2022-09-01T17:28:56.409Z,101780.44
2022-09-01T17:31:38.022Z,101784.19
2022-09-01T17:34:18.713Z,101777.78
2022-09-01T17:36:57.173Z,101772.91
2022-09-01T17:39:37.032Z,101787.97
2022-09-01T17:42:07.403Z,101779.72
2022-09-01T17:44:43.206Z,101788.50
2022-09-01T17:47:13.902Z,101784.09
2022-09-01T17:49:45.502Z,101793.72
2022-09-01T17:52:19.276Z,101794.72
2022-09-01T17:54:51.362Z,101802.16
2022-09-01T17:57:25.903Z,101803.84
2022-09-01T17:59:56.163Z,101800.78
2022-09-01T18:02:48.760Z,101797.59
2022-09-01T18:05:16.332Z,101798.38
2022-09-01T18:08:04.201Z,101802.75
2022-09-01T18:10:34.078Z,101803.41
2022-09-01T18:13:05.018Z,101807.69
2022-09-01T18:15:30.608Z,101808.47
2022-09-01T18:18:07.645Z,101801.47
2022-09-01T18:20:41.951Z,101805.44
2022-09-01T18:23:08.878Z,101805.66
2022-09-01T18:25:41.900Z,101809.53
2022-09-01T18:28:05.746Z,101812.03
2022-09-01T18:30:52.212Z,101812.84
2022-09-01T18:33:28.051Z,101824.63
2022-09-01T18:36:04.808Z,101826.28
2022-09-01T18:38:42.702Z,101835.88
2022-09-01T18:41:36.867Z,101834.47
2022-09-01T18:44:19.036Z,101839.47
2022-09-01T18:46:55.214Z,101833.91
2022-09-01T18:49:29.927Z,101840.63
2022-09-01T18:52:09.243Z,101840.50
2022-09-01T18:54:40.559Z,101835.66
2022-09-01T18:57:07.070Z,101835.53
2022-09-01T18:59:55.020Z,101841.81
2022-09-01T19:03:06.874Z,101840.13
2022-09-01T19:05:59.794Z,101841.69
2022-09-01T19:08:43.753Z,101838.25
2022-09-01T19:11:15.024Z,101848.41
2022-09-01T19:13:56.466Z,101844.84
2022-09-01T19:16:35.687Z,101847.97
2022-09-01T19:19:10.186Z,101847.38
2022-09-01T19:21:34.554Z,101851.81
2022-09-01T19:24:04.735Z,101854.53
2022-09-01T19:26:29.924Z,101843.94
2022-09-01T19:29:00.439Z,101846.59
2022-09-01T19:31:29.233Z,101854.00
2022-09-01T19:33:57.264Z,101848.81
2022-09-01T19:36:31.081Z,101848.25
2022-09-01T19:38:55.235Z,101856.09
2022-09-01T19:41:26.827Z,101856.34
2022-09-01T19:43:57.455Z,101847.19
2022-09-01T19:46:31.234Z,101852.56
2022-09-01T19:49:04.738Z,101853.97
2022-09-01T19:51:35.657Z,101847.22
2022-09-01T19:54:05.307Z,101851.19
2022-09-01T19:56:36.439Z,101855.31
2022-09-01T19:59:14.316Z,101849.56
2022-09-01T20:01:47.335Z,101853.56
2022-09-01T20:04:32.575Z,101854.19
2022-09-01T20:07:00.686Z,101854.75
2022-09-01T20:09:34.741Z,101855.59
2022-09-01T20:12:09.761Z,101859.81
2022-09-01T20:15:05.731Z,101863.31
2022-09-01T20:17:35.507Z,101855.19
2022-09-01T20:20:07.663Z,101848.81
2022-09-01T20:22:40.254Z,101858.91
2022-09-01T20:25:10.890Z,101859.78
2022-09-01T20:27:54.214Z,101854.38
2022-09-01T20:30:21.847Z,101863.13
2022-09-01T20:32:52.307Z,101864.78
2022-09-01T20:35:23.023Z,101866.00
2022-09-01T20:37:51.423Z,101857.56
2022-09-01T20:40:19.530Z,101872.09
2022-09-01T20:42:55.590Z,101866.66
2022-09-01T20:45:22.383Z,101868.78
2022-09-01T20:47:51.462Z,101864.00
2022-09-01T20:50:16.127Z,101865.47
2022-09-01T20:52:53.895Z,101865.16
2022-09-01T20:55:24.937Z,101870.44
2022-09-01T20:58:01.203Z,101866.66
2022-09-01T21:00:28.074Z,101863.34
2022-09-01T21:03:03.546Z,101872.44
2022-09-01T21:05:41.514Z,101870.84
2022-09-01T21:08:26.450Z,101874.91
2022-09-01T21:11:25.282Z,101870.25
2022-09-01T21:14:09.074Z,101867.66
2022-09-01T21:16:57.775Z,101868.50
2022-09-01T21:19:30.253Z,101873.06
2022-09-01T21:22:05.824Z,101872.69
2022-09-01T21:24:29.486Z,101863.13
2022-09-01T21:26:56.661Z,101864.13
2022-09-01T21:29:33.160Z,101868.78
2022-09-01T21:31:58.349Z,101883.28
2022-09-01T21:34:22.046Z,101880.84
2022-09-01T21:36:45.827Z,101876.91
2022-09-01T21:39:09.501Z,101873.66
2022-09-01T21:41:33.239Z,101878.88
2022-09-01T21:43:56.955Z,101873.44
2022-09-01T21:46:22.121Z,101879.81
2022-09-01T21:48:45.790Z,101873.19
2022-09-01T21:51:09.622Z,101873.06
2022-09-01T21:53:34.070Z,101877.34
2022-09-01T21:55:57.916Z,101872.22
2022-09-01T21:58:21.611Z,101870.84
2022-09-01T22:00:45.747Z,101869.13
2022-09-01T22:03:12.106Z,101861.84
2022-09-01T22:05:36.713Z,101867.13
2022-09-01T22:08:01.559Z,101870.94
2022-09-01T22:10:28.336Z,101870.44
2022-09-01T22:12:52.542Z,101867.97
2022-09-01T22:15:19.444Z,101867.59
2022-09-01T22:17:43.208Z,101867.22
2022-09-01T22:20:12.031Z,101862.81
2022-09-01T22:22:36.505Z,101862.44
2022-09-01T22:25:00.233Z,101854.47
2022-09-01T22:27:23.957Z,101860.94
2022-09-01T22:29:47.654Z,101863.78
2022-09-01T22:32:11.352Z,101856.16
2022-09-01T22:34:35.567Z,101861.28
2022-09-01T22:37:00.603Z,101861.16
2022-09-01T22:39:25.669Z,101859.31
2022-09-01T22:41:49.627Z,101863.00
2022-09-01T22:44:13.523Z,101860.44
2022-09-01T22:46:39.658Z,101857.09
2022-09-01T22:49:04.124Z,101861.25
2022-09-01T22:51:29.029Z,101861.00
2022-09-01T22:53:55.157Z,101857.56
2022-09-01T22:56:23.350Z,101855.09
2022-09-01T22:58:47.186Z,101863.56
2022-09-01T23:01:15.099Z,101868.94
2022-09-01T23:03:38.960Z,101862.16
2022-09-01T23:06:10.056Z,101862.94
2022-09-01T23:08:33.839Z,101865.13
2022-09-01T23:10:58.876Z,101860.91
2022-09-01T23:13:22.752Z,101861.88
2022-09-01T23:15:46.552Z,101857.47
2022-09-01T23:18:10.416Z,101852.06
2022-09-01T23:20:34.192Z,101861.38
2022-09-01T23:22:58.031Z,101856.84
2022-09-01T23:25:21.874Z,101856.47
2022-09-01T23:27:47.119Z,101854.94
2022-09-01T23:30:15.466Z,101849.56
2022-09-01T23:32:39.511Z,101848.56
2022-09-01T23:35:03.655Z,101850.91
2022-09-01T23:37:27.415Z,101849.25
2022-09-01T23:39:51.728Z,101850.13
2022-09-01T23:42:15.503Z,101840.31
2022-09-01T23:44:40.971Z,101847.91
2022-09-01T23:47:05.523Z,101845.72
2022-09-01T23:49:29.183Z,101846.94
2022-09-01T23:51:55.475Z,101845.31
2022-09-01T23:54:20.197Z,101847.38
2022-09-01T23:56:44.027Z,101844.97
2022-09-01T23:59:08.632Z,101838.47
